Time;durP1;ratioP1;P1;durP2;ratioP2;P2;SDS_P1;SDS_P2;PMS_P1;PMS_P2;Temp;Humidity;BMP_temperature;BMP_pressure;BME280_temperature;BME280_humidity;BME280_pressure;Samples;Min_cycle;Max_cycle;Signal;HPM_P1;HPM_P2
2021/05/29 00:00:37;;;;;;;5.27;4.77;;;9.60;99.90;;;9.73;100.00;95450.00;2397665;56;26845;-63
2021/05/29 00:03:26;;;;;;;8.57;4.97;;;9.70;99.90;;;9.83;100.00;95443.00;2188010;56;27170;-63
2021/05/29 00:06:13;;;;;;;5.83;5.23;;;9.70;99.90;;;9.89;100.00;95456.00;2404516;56;26858;-63
2021/05/29 00:08:59;;;;;;;6.23;5.60;;;9.70;99.90;;;9.90;100.00;95447.00;2240924;56;27112;-63
2021/05/29 00:11:46;;;;;;;6.70;5.23;;;9.70;99.90;;;9.91;100.00;95438.00;2187407;56;26755;-62
2021/05/29 00:14:33;;;;;;;5.57;4.90;;;9.60;99.90;;;9.84;100.00;95443.00;2186866;56;26278;-63
2021/05/29 00:17:20;;;;;;;5.77;5.17;;;9.60;99.90;;;9.85;100.00;95449.00;2188369;56;26151;-63
2021/05/29 00:20:09;;;;;;;6.27;5.40;;;9.60;99.90;;;9.85;100.00;95439.00;2188063;56;27304;-63
2021/05/29 00:22:56;;;;;;;7.47;5.57;;;9.60;99.90;;;9.81;100.00;95438.00;2186550;56;26171;-63
2021/05/29 00:25:44;;;;;;;6.10;5.30;;;9.60;99.90;;;9.79;100.00;95439.00;2398449;56;26686;-62
2021/05/29 00:28:30;;;;;;;6.67;4.90;;;9.60;99.90;;;9.80;100.00;95436.00;2395769;56;26713;-62
2021/05/29 00:31:17;;;;;;;6.03;5.10;;;9.60;99.90;;;9.78;100.00;95440.00;2187274;56;26807;-62
2021/05/29 00:34:03;;;;;;;5.73;5.17;;;9.50;99.90;;;9.63;100.00;95437.00;2186953;56;26583;-62
2021/05/29 00:36:49;;;;;;;6.73;5.60;;;9.40;99.90;;;9.56;100.00;95442.00;2187584;56;26687;-62
2021/05/29 00:39:36;;;;;;;7.07;5.93;;;9.40;99.90;;;9.53;100.00;95448.00;2330104;56;26766;-62
2021/05/29 00:42:22;;;;;;;7.10;6.10;;;9.40;99.90;;;9.52;100.00;95453.00;2367386;56;26978;-62
2021/05/29 00:45:10;;;;;;;7.40;5.77;;;9.50;99.90;;;9.58;100.00;95451.00;2188043;56;27383;-62
2021/05/29 00:47:59;;;;;;;7.87;6.27;;;9.50;99.90;;;9.63;100.00;95452.00;2270047;56;26852;-62
2021/05/29 00:50:48;;;;;;;6.07;5.47;;;9.50;99.90;;;9.67;100.00;95446.00;2404551;56;27240;-63
2021/05/29 00:53:38;;;;;;;6.67;5.27;;;9.40;99.90;;;9.64;100.00;95444.00;2286662;56;26709;-63
2021/05/29 00:56:25;;;;;;;9.07;5.23;;;9.40;99.90;;;9.65;100.00;95438.00;2406245;56;26760;-63
2021/05/29 00:59:11;;;;;;;6.53;4.53;;;9.30;99.90;;;9.56;100.00;95427.00;2369990;56;26627;-63
2021/05/29 01:01:57;;;;;;;5.17;4.67;;;9.50;99.90;;;9.83;100.00;95422.00;2404246;56;26259;-62
2021/05/29 01:04:45;;;;;;;5.63;4.67;;;9.40;99.90;;;9.62;100.00;95420.00;2186877;56;26136;-62
2021/05/29 01:07:31;;;;;;;5.90;4.90;;;9.20;99.90;;;9.41;100.00;95431.00;2308808;56;26849;-62
2021/05/29 01:10:18;;;;;;;8.53;5.30;;;9.20;99.90;;;9.31;100.00;95428.00;2187416;56;26727;-62
2021/05/29 01:13:07;;;;;;;7.23;5.37;;;9.10;99.90;;;9.16;100.00;95420.00;2402504;56;26619;-62
2021/05/29 01:15:56;;;;;;;8.63;5.13;;;9.00;99.90;;;9.09;100.00;95426.00;2405523;56;26689;-62
2021/05/29 01:18:42;;;;;;;6.13;5.30;;;9.00;99.90;;;9.04;100.00;95419.00;2404157;56;27467;-63
2021/05/29 01:21:28;;;;;;;6.50;5.33;;;8.90;99.90;;;9.01;100.00;95407.00;2331650;56;26881;-62
2021/05/29 01:24:15;;;;;;;6.40;5.53;;;8.80;99.90;;;8.92;100.00;95411.00;2184158;56;26888;-62
2021/05/29 01:27:01;;;;;;;8.50;5.17;;;8.70;99.90;;;8.88;100.00;95420.00;2395382;56;26784;-64
2021/05/29 01:29:47;;;;;;;6.90;5.73;;;8.70;99.90;;;8.83;100.00;95425.00;2178585;56;26617;-63
2021/05/29 01:32:34;;;;;;;6.73;5.97;;;8.80;99.90;;;8.91;100.00;95425.00;2181573;56;26623;-63
2021/05/29 01:35:21;;;;;;;7.30;6.13;;;8.80;99.90;;;8.93;100.00;95431.00;2325839;56;26769;-63
2021/05/29 01:38:07;;;;;;;6.77;5.87;;;8.80;99.90;;;8.99;100.00;95444.00;2188201;56;26827;-63
2021/05/29 01:40:57;;;;;;;8.57;6.10;;;8.90;99.90;;;9.10;100.00;95443.00;2196607;56;26611;-63
2021/05/29 01:43:45;;;;;;;7.80;6.20;;;9.00;99.90;;;9.21;100.00;95435.00;2398966;56;26268;-63
2021/05/29 01:46:31;;;;;;;9.63;5.93;;;9.10;99.90;;;9.27;100.00;95428.00;2393452;56;27205;-63
2021/05/29 01:49:19;;;;;;;7.70;5.97;;;9.00;99.90;;;9.30;100.00;95431.00;2391215;56;27406;-63
2021/05/29 01:52:06;;;;;;;7.63;6.20;;;9.00;99.90;;;9.14;100.00;95415.00;2186382;56;26651;-64
2021/05/29 01:54:53;;;;;;;7.50;5.97;;;8.80;99.90;;;9.08;100.00;95413.00;2185388;56;27120;-63
2021/05/29 01:57:39;;;;;;;7.20;6.50;;;8.90;99.90;;;9.04;100.00;95423.00;2189002;56;26799;-63
2021/05/29 02:00:29;;;;;;;6.80;6.10;;;8.90;99.90;;;9.02;100.00;95422.00;2408091;56;26717;-64
2021/05/29 02:03:15;;;;;;;8.30;6.60;;;8.80;99.90;;;9.00;100.00;95424.00;2186735;56;25789;-64
2021/05/29 02:06:02;;;;;;;7.10;6.40;;;8.90;99.90;;;9.03;100.00;95418.00;2232695;56;26677;-63
2021/05/29 02:08:48;;;;;;;9.00;6.50;;;8.90;99.90;;;9.06;100.00;95413.00;2187855;56;26663;-63
2021/05/29 02:11:35;;;;;;;7.13;6.00;;;8.80;99.90;;;8.98;100.00;95407.00;2237826;56;26726;-63
2021/05/29 02:14:21;;;;;;;7.07;6.20;;;8.80;99.90;;;8.94;100.00;95427.00;2187521;56;26669;-63
2021/05/29 02:17:08;;;;;;;7.00;6.17;;;8.70;99.90;;;8.88;100.00;95423.00;2185894;56;26674;-63
2021/05/29 02:19:54;;;;;;;9.60;7.30;;;8.70;99.90;;;8.86;100.00;95424.00;2187183;56;26793;-63
2021/05/29 02:22:41;;;;;;;9.10;7.37;;;8.70;99.90;;;8.90;100.00;95428.00;2404048;56;26449;-63
2021/05/29 02:25:27;;;;;;;10.10;7.37;;;8.70;99.90;;;8.92;100.00;95429.00;2187368;56;26274;-63
2021/05/29 02:28:14;;;;;;;9.97;7.10;;;8.80;99.90;;;8.94;100.00;95417.00;2355096;56;27134;-63
2021/05/29 02:31:01;;;;;;;9.30;7.30;;;8.80;99.90;;;8.99;100.00;95420.00;2405434;56;26683;-63
2021/05/29 02:33:48;;;;;;;8.63;7.30;;;8.80;99.90;;;9.03;100.00;95410.00;2188151;56;27321;-65
2021/05/29 02:36:35;;;;;;;8.40;7.17;;;8.80;99.90;;;9.03;100.00;95413.00;2189304;56;26685;-63
2021/05/29 02:39:21;;;;;;;9.10;7.20;;;8.80;99.90;;;9.00;100.00;95421.00;2187463;56;26598;-63
2021/05/29 02:42:08;;;;;;;7.93;7.07;;;8.80;99.90;;;9.07;100.00;95417.00;2405223;56;26711;-64
2021/05/29 02:44:54;;;;;;;9.33;7.63;;;8.90;99.90;;;9.11;100.00;95412.00;2312496;56;27260;-63
2021/05/29 02:47:41;;;;;;;7.80;6.73;;;8.90;99.90;;;9.08;100.00;95413.00;2187918;56;26823;-63
2021/05/29 02:50:27;;;;;;;8.80;6.93;;;8.90;99.90;;;9.11;100.00;95420.00;2186634;56;26620;-62
2021/05/29 02:53:17;;;;;;;9.93;6.80;;;8.90;99.90;;;9.20;100.00;95407.00;2189303;56;26015;-64
2021/05/29 02:56:03;;;;;;;9.30;7.10;;;9.00;99.90;;;9.21;100.00;95416.00;2187860;56;26850;-66
2021/05/29 02:58:49;;;;;;;9.57;7.03;;;9.00;99.90;;;9.19;100.00;95418.00;2407080;56;26834;-62
2021/05/29 03:01:36;;;;;;;7.80;6.97;;;9.00;99.90;;;9.16;100.00;95421.00;2187242;56;26278;-63
2021/05/29 03:04:22;;;;;;;8.30;7.00;;;8.90;99.90;;;9.14;100.00;95410.00;2187320;56;26863;-62
2021/05/29 03:07:08;;;;;;;7.77;6.93;;;8.90;99.90;;;9.13;100.00;95411.00;2243091;56;26989;-63
2021/05/29 03:09:55;;;;;;;9.47;6.57;;;8.80;99.90;;;9.09;100.00;95396.00;2186438;56;26890;-62
2021/05/29 03:12:42;;;;;;;8.63;6.80;;;8.80;99.90;;;9.04;100.00;95402.00;2197125;56;26863;-63
2021/05/29 03:15:28;;;;;;;8.70;6.43;;;8.80;99.90;;;9.04;100.00;95406.00;2177343;56;27219;-63
2021/05/29 03:18:15;;;;;;;8.97;6.63;;;8.80;99.90;;;8.98;100.00;95413.00;2178695;56;26695;-62
2021/05/29 03:21:01;;;;;;;8.47;7.07;;;8.80;99.90;;;8.94;100.00;95420.00;2403565;56;26867;-63
2021/05/29 03:23:47;;;;;;;8.77;6.97;;;8.70;99.90;;;8.91;100.00;95425.00;2404886;56;27253;-62
2021/05/29 03:26:34;;;;;;;8.40;6.53;;;8.80;99.90;;;8.95;100.00;95429.00;2332126;56;26681;-62
2021/05/29 03:29:20;;;;;;;9.20;6.43;;;8.70;99.90;;;8.98;100.00;95421.00;2185979;56;26813;-62
2021/05/29 03:32:08;;;;;;;8.17;6.60;;;8.80;99.90;;;9.00;100.00;95432.00;2245932;56;26123;-62
2021/05/29 03:34:54;;;;;;;9.10;6.80;;;8.80;99.90;;;9.02;100.00;95430.00;2187919;56;26139;-63
2021/05/29 03:37:41;;;;;;;6.93;6.00;;;8.80;99.90;;;9.08;100.00;95431.00;2405869;56;26643;-62
2021/05/29 03:40:27;;;;;;;12.17;6.77;;;8.90;99.90;;;9.14;100.00;95428.00;2188384;56;26461;-63
2021/05/29 03:43:14;;;;;;;8.93;6.40;;;8.90;99.90;;;9.15;100.00;95429.00;2188365;56;26814;-62
2021/05/29 03:46:00;;;;;;;7.77;6.20;;;8.90;99.90;;;9.15;100.00;95425.00;2191665;56;26700;-62
2021/05/29 03:48:47;;;;;;;8.57;6.17;;;8.90;99.90;;;9.17;100.00;95431.00;2186152;56;27746;-62
2021/05/29 03:51:33;;;;;;;6.60;5.87;;;8.90;99.90;;;9.19;100.00;95437.00;2404331;56;26998;-62
2021/05/29 03:54:19;;;;;;;9.53;6.50;;;8.90;99.90;;;9.22;100.00;95446.00;2406615;56;26575;-62
2021/05/29 03:57:07;;;;;;;8.37;6.27;;;8.90;99.90;;;9.21;100.00;95450.00;2405523;56;26254;-63
2021/05/29 03:59:53;;;;;;;7.60;5.80;;;8.90;99.90;;;9.21;100.00;95450.00;2187576;56;27180;-62
2021/05/29 04:02:40;;;;;;;7.87;5.83;;;8.90;99.90;;;9.27;100.00;95449.00;2188152;56;26232;-62
2021/05/29 04:05:26;;;;;;;6.23;5.50;;;9.00;99.90;;;9.31;100.00;95459.00;2325408;56;27317;-63
2021/05/29 04:08:12;;;;;;;7.27;6.07;;;9.00;99.90;;;9.30;100.00;95465.00;2405252;56;26965;-62
2021/05/29 04:10:59;;;;;;;6.77;5.73;;;9.00;99.90;;;9.35;100.00;95458.00;2332806;56;26655;-62
2021/05/29 04:13:45;;;;;;;8.20;6.67;;;9.10;99.90;;;9.39;100.00;95454.00;2404560;56;27298;-62
2021/05/29 04:16:32;;;;;;;6.60;5.60;;;9.00;99.90;;;9.32;100.00;95448.00;2298581;56;26139;-63
2021/05/29 04:19:18;;;;;;;8.10;5.33;;;9.00;99.90;;;9.34;100.00;95453.00;2187346;56;26679;-63
2021/05/29 04:22:05;;;;;;;6.53;5.40;;;9.00;99.90;;;9.39;100.00;95464.00;2215458;56;26875;-62
2021/05/29 04:24:51;;;;;;;10.03;5.40;;;9.10;99.90;;;9.44;100.00;95461.00;2187248;56;26632;-62
2021/05/29 04:27:38;;;;;;;6.40;5.33;;;9.10;99.90;;;9.46;100.00;95465.00;2188367;56;27256;-62
2021/05/29 04:30:28;;;;;;;5.67;5.00;;;9.10;99.90;;;9.44;100.00;95469.00;2188005;56;26702;-62
2021/05/29 04:33:15;;;;;;;5.70;5.10;;;9.10;99.90;;;9.50;100.00;95471.00;2405095;56;26899;-62
2021/05/29 04:36:02;;;;;;;6.10;4.67;;;9.10;99.90;;;9.55;100.00;95472.00;2187156;56;27106;-62
2021/05/29 04:38:48;;;;;;;5.90;4.30;;;9.20;99.90;;;9.64;100.00;95470.00;2403944;56;27149;-62
2021/05/29 04:41:35;;;;;;;6.23;4.77;;;9.30;99.90;;;9.81;100.00;95464.00;2332797;56;26834;-63
2021/05/29 04:44:21;;;;;;;6.63;4.90;;;9.40;99.90;;;9.91;100.00;95462.00;2186490;56;26682;-62
2021/05/29 04:47:07;;;;;;;5.90;4.40;;;9.50;99.90;;;10.07;100.00;95462.00;2187010;56;26718;-62
2021/05/29 04:49:53;;;;;;;6.50;4.97;;;9.60;99.90;;;10.19;100.00;95473.00;2189443;56;26690;-62
2021/05/29 04:52:40;;;;;;;4.83;4.23;;;9.60;99.90;;;10.22;100.00;95465.00;2185802;56;27044;-63
2021/05/29 04:55:26;;;;;;;4.93;4.43;;;9.60;99.90;;;10.31;100.00;95477.00;2406311;56;27109;-63
2021/05/29 04:58:13;;;;;;;5.33;4.57;;;9.60;99.90;;;10.22;100.00;95473.00;2406174;56;26749;-63
2021/05/29 05:00:59;;;;;;;5.93;4.20;;;9.70;99.90;;;10.28;100.00;95467.00;2404947;56;27162;-62
2021/05/29 05:03:45;;;;;;;5.50;4.30;;;9.70;99.90;;;10.25;100.00;95468.00;2187756;56;26195;-62
2021/05/29 05:06:32;;;;;;;6.40;4.33;;;9.70;99.90;;;10.25;100.00;95468.00;2186406;56;26748;-62
2021/05/29 05:09:18;;;;;;;5.37;4.10;;;9.80;99.90;;;10.42;100.00;95469.00;2187457;56;26791;-63
2021/05/29 05:12:07;;;;;;;5.40;4.30;;;9.80;99.90;;;10.46;100.00;95473.00;2188412;56;27145;-64
2021/05/29 05:14:53;;;;;;;5.20;3.97;;;9.90;99.90;;;10.54;100.00;95468.00;2406878;56;26808;-63
2021/05/29 05:17:39;;;;;;;4.33;3.87;;;10.00;99.90;;;10.63;100.00;95470.00;2354473;56;26592;-63
2021/05/29 05:20:26;;;;;;;4.20;3.60;;;10.00;99.90;;;10.69;100.00;95477.00;2186330;56;27281;-63
2021/05/29 05:23:12;;;;;;;3.97;3.57;;;10.10;99.90;;;10.75;100.00;95472.00;2185998;56;26730;-63
2021/05/29 05:25:58;;;;;;;5.03;3.83;;;10.10;99.90;;;10.88;100.00;95465.00;2252076;56;26729;-63
2021/05/29 05:28:45;;;;;;;7.40;4.07;;;10.30;99.90;;;11.07;100.00;95472.00;2188718;56;26969;-63
2021/05/29 05:31:33;;;;;;;9.67;3.90;;;10.30;99.90;;;11.09;100.00;95465.00;2406161;56;26710;-63
2021/05/29 05:34:19;;;;;;;3.73;3.33;;;10.30;99.90;;;11.13;100.00;95469.00;2187967;56;27271;-63
2021/05/29 05:37:07;;;;;;;4.67;3.57;;;10.30;99.90;;;11.17;100.00;95470.00;2186826;56;26829;-63
2021/05/29 05:39:53;;;;;;;4.10;3.70;;;10.50;99.90;;;11.27;100.00;95471.00;2188282;56;26642;-63
2021/05/29 05:42:39;;;;;;;4.17;3.67;;;10.50;99.90;;;11.36;100.00;95472.00;2181711;56;26584;-64
2021/05/29 05:45:26;;;;;;;4.47;3.30;;;10.60;99.90;;;11.52;100.00;95466.00;2179626;56;27195;-64
2021/05/29 05:48:12;;;;;;;5.27;3.60;;;10.70;99.90;;;11.57;100.00;95464.00;2189954;56;27386;-63
2021/05/29 05:50:59;;;;;;;4.60;3.40;;;10.50;99.90;;;11.22;100.00;95463.00;2248791;56;26633;-64
2021/05/29 05:53:46;;;;;;;4.17;3.20;;;10.80;99.90;;;11.58;100.00;95458.00;2407157;56;26799;-63
2021/05/29 05:56:32;;;;;;;6.00;3.50;;;10.70;99.90;;;11.50;100.00;95472.00;2189038;56;26795;-62
2021/05/29 05:59:18;;;;;;;3.43;3.10;;;10.90;99.90;;;11.69;100.00;95470.00;2279398;56;26928;-63
2021/05/29 06:02:05;;;;;;;4.77;3.10;;;11.10;99.90;;;12.04;100.00;95459.00;2189336;56;26834;-62
2021/05/29 06:04:52;;;;;;;3.57;3.10;;;11.20;99.90;;;12.41;100.00;95469.00;2237151;56;27154;-62
2021/05/29 06:07:38;;;;;;;3.77;3.10;;;11.60;99.90;;;12.26;100.00;95467.00;2188017;56;26646;-62
2021/05/29 06:10:24;;;;;;;3.40;2.77;;;11.30;99.90;;;11.97;100.00;95468.00;2196227;56;26665;-62
2021/05/29 06:13:14;;;;;;;2.60;2.40;;;11.50;99.90;;;12.49;100.00;95464.00;2403679;56;26713;-62
2021/05/29 06:19:11;;;;;;;3.93;2.30;;;12.30;99.90;;;13.04;100.00;95468.00;2258988;56;26709;-62
2021/05/29 06:21:58;;;;;;;3.80;2.03;;;12.60;99.90;;;13.35;100.00;95470.00;2186765;56;27107;-62
2021/05/29 06:24:44;;;;;;;2.57;2.30;;;11.90;99.90;;;12.66;100.00;95468.00;2185353;56;26964;-62
2021/05/29 06:27:32;;;;;;;2.20;1.97;;;11.70;99.90;;;12.70;100.00;95462.00;2237173;56;26742;-62
2021/05/29 06:30:19;;;;;;;2.17;1.77;;;12.30;99.90;;;13.39;100.00;95462.00;2256842;56;27442;-63
2021/05/29 06:33:07;;;;;;;2.30;1.70;;;12.40;99.90;;;13.50;100.00;95469.00;2234227;56;26650;-63
2021/05/29 06:35:53;;;;;;;1.90;1.75;;;12.60;99.90;;;13.50;100.00;95467.00;2186305;56;26597;-63
2021/05/29 06:38:39;;;;;;;3.50;1.70;;;13.00;99.90;;;14.18;100.00;95474.00;2188311;56;26732;-63
2021/05/29 06:41:26;;;;;;;2.17;1.87;;;13.10;99.90;;;14.19;100.00;95481.00;2187406;56;26722;-63
2021/05/29 06:44:13;;;;;;;2.28;1.70;;;13.60;99.90;;;14.95;100.00;95476.00;2186487;56;26817;-64
2021/05/29 06:47:00;;;;;;;2.60;1.90;;;13.50;99.90;;;14.90;100.00;95470.00;2405257;56;26672;-65
2021/05/29 06:49:46;;;;;;;2.30;2.00;;;13.80;99.90;;;15.47;100.00;95475.00;2186270;56;26935;-65
2021/05/29 06:52:34;;;;;;;1.90;1.70;;;14.40;99.90;;;15.68;100.00;95469.00;2227547;56;26971;-65
2021/05/29 06:58:39;;;;;;;2.50;1.95;;;14.90;99.90;;;16.47;100.00;95475.00;2208902;56;26704;-64
2021/05/29 07:01:28;;;;;;;2.78;1.80;;;14.70;99.90;;;16.32;100.00;95475.00;2186978;56;27291;-64
2021/05/29 07:04:14;;;;;;;1.77;1.60;;;15.00;99.90;;;16.13;100.00;95476.00;2324616;56;26179;-64
2021/05/29 07:07:01;;;;;;;2.08;1.80;;;15.10;99.90;;;16.15;100.00;95478.00;2407411;56;27590;-64
2021/05/29 07:09:47;;;;;;;2.53;1.77;;;15.30;99.90;;;16.96;100.00;95476.00;2189629;56;26635;-64
2021/05/29 07:12:33;;;;;;;2.87;1.85;;;15.90;99.90;;;17.97;100.00;95479.00;2405680;56;26782;-64
2021/05/29 07:15:20;;;;;;;2.55;1.80;;;15.90;99.90;;;17.73;100.00;95481.00;2405912;56;26697;-64
2021/05/29 07:18:09;;;;;;;3.60;1.90;;;16.40;99.90;;;18.22;100.00;95480.00;2325368;56;26751;-64
2021/05/29 07:20:55;;;;;;;1.80;1.70;;;16.00;99.90;;;18.28;100.00;95477.00;2187894;56;27370;-63
2021/05/29 07:23:42;;;;;;;2.28;1.77;;;16.10;99.90;;;17.42;100.00;95478.00;2277128;56;27034;-63
2021/05/29 07:26:28;;;;;;;3.28;2.10;;;15.30;99.90;;;16.79;100.00;95472.00;2405623;56;27376;-65
2021/05/29 07:29:15;;;;;;;2.20;1.98;;;14.60;99.90;;;15.58;100.00;95483.00;2193259;56;26730;-63
2021/05/29 07:32:02;;;;;;;2.07;1.80;;;15.00;99.90;;;15.88;100.00;95480.00;2264526;56;27032;-63
2021/05/29 07:34:49;;;;;;;2.10;1.60;;;13.90;99.90;;;14.66;100.00;95479.00;2405558;56;26683;-63
2021/05/29 07:37:36;;;;;;;1.90;1.77;;;14.00;99.90;;;15.18;100.00;95486.00;2406142;56;26751;-62
2021/05/29 07:40:22;;;;;;;2.28;1.80;;;14.20;99.90;;;15.59;100.00;95493.00;2301376;56;26452;-63
2021/05/29 07:43:08;;;;;;;2.05;1.50;;;14.40;99.90;;;16.62;100.00;95484.00;2317733;56;26698;-63
2021/05/29 07:45:54;;;;;;;2.83;1.60;;;16.50;99.90;;;19.35;98.17;95474.00;2256040;56;26828;-63
2021/05/29 07:48:41;;;;;;;2.10;1.60;;;16.10;99.90;;;18.74;100.00;95483.00;2405993;56;26247;-63
2021/05/29 07:51:27;;;;;;;2.35;1.98;;;17.10;99.90;;;20.19;80.87;95482.00;2187854;56;26766;-63
2021/05/29 07:54:13;;;;;;;2.17;1.92;;;17.20;99.90;;;17.76;91.09;95483.00;2185638;56;26822;-63
2021/05/29 07:57:00;;;;;;;3.05;1.70;;;16.40;99.90;;;17.71;100.00;95485.00;2189262;56;26191;-63
2021/05/29 07:59:46;;;;;;;2.10;1.90;;;16.30;99.90;;;18.71;98.03;95479.00;2187111;56;27265;-63
2021/05/29 08:02:32;;;;;;;2.85;1.85;;;15.60;99.90;;;17.93;100.00;95478.00;2405558;56;26772;-63
2021/05/29 08:05:20;;;;;;;1.90;1.70;;;15.20;99.90;;;16.97;100.00;95485.00;2216369;56;26724;-64
2021/05/29 08:08:07;;;;;;;4.57;2.00;;;14.80;99.90;;;16.25;100.00;95489.00;2188826;56;26747;-62
2021/05/29 08:10:56;;;;;;;2.08;1.87;;;14.70;99.90;;;16.04;100.00;95489.00;2186483;56;26777;-63
2021/05/29 08:13:42;;;;;;;3.55;1.83;;;14.60;99.90;;;16.25;100.00;95493.00;2404583;56;26615;-63
2021/05/29 08:16:29;;;;;;;2.72;1.80;;;15.50;99.90;;;17.00;100.00;95488.00;2405975;56;26727;-63
2021/05/29 08:19:16;;;;;;;4.80;1.85;;;15.50;99.90;;;17.61;100.00;95486.00;2186686;56;26630;-62
2021/05/29 08:22:03;;;;;;;2.25;1.80;;;15.40;99.90;;;17.26;100.00;95488.00;2179814;56;26873;-63
2021/05/29 08:24:49;;;;;;;2.00;1.70;;;15.40;99.90;;;17.17;100.00;95481.00;2234992;56;26828;-63
2021/05/29 08:27:35;;;;;;;2.62;1.80;;;17.30;99.90;;;18.94;78.86;95490.00;2391508;56;26677;-62
2021/05/29 08:30:22;;;;;;;3.35;1.60;;;17.30;99.90;;;18.78;81.42;95476.00;2239776;56;26859;-63
2021/05/29 08:33:10;;;;;;;2.50;1.60;;;16.50;99.90;;;18.58;86.63;95480.00;2224463;56;26637;-62
2021/05/29 08:35:56;;;;;;;3.37;2.00;;;16.20;99.90;;;18.21;89.32;95493.00;2394105;56;26699;-63
2021/05/29 08:38:44;;;;;;;2.60;2.00;;;16.30;99.90;;;18.81;93.20;95488.00;2183061;56;26802;-64
2021/05/29 08:41:31;;;;;;;2.15;1.95;;;16.60;99.90;;;19.24;80.79;95486.00;2187931;56;26685;-63
2021/05/29 08:44:18;;;;;;;2.80;1.92;;;17.00;99.90;;;20.11;73.47;95485.00;2185537;56;26939;-61
2021/05/29 08:47:05;;;;;;;2.40;2.00;;;16.50;99.90;;;18.90;83.87;95487.00;2187023;56;27026;-64
2021/05/29 08:49:52;;;;;;;3.03;1.75;;;16.10;99.90;;;18.23;88.87;95485.00;2281940;56;26802;-64
2021/05/29 08:52:39;;;;;;;4.78;1.77;;;18.60;99.90;;;21.25;64.08;95477.00;2265610;56;26725;-64
2021/05/29 08:55:26;;;;;;;3.58;1.90;;;17.70;99.90;;;20.43;73.49;95491.00;2329180;56;26662;-64
2021/05/29 08:58:12;;;;;;;3.10;1.80;;;17.70;99.90;;;20.48;67.44;95484.00;2406518;56;27186;-65
2021/05/29 09:01:00;;;;;;;2.72;1.58;;;17.10;99.90;;;19.12;89.50;95490.00;2198118;56;27167;-63
2021/05/29 09:03:50;;;;;;;2.90;2.42;;;17.10;99.90;;;18.99;64.04;95480.00;2223187;56;26831;-62
2021/05/29 09:06:42;;;;;;;6.95;4.60;;;17.70;99.90;;;20.19;63.95;95489.00;2186434;56;26232;-62
2021/05/29 09:09:29;;;;;;;2.78;2.00;;;18.20;99.90;;;20.67;63.54;95480.00;2360693;56;27510;-62
2021/05/29 09:12:15;;;;;;;3.85;2.35;;;17.60;99.90;;;20.11;66.11;95483.00;2187032;56;26913;-62
2021/05/29 09:15:02;;;;;;;1.80;1.70;;;18.90;99.90;;;22.69;55.35;95477.00;2185715;56;26758;-62
2021/05/29 09:17:48;;;;;;;1.85;1.67;;;18.10;99.90;;;20.49;51.89;95474.00;2254009;56;26262;-62
2021/05/29 09:20:35;;;;;;;1.90;1.70;;;20.70;99.90;;;25.70;39.54;95476.00;2402619;56;26627;-62
2021/05/29 09:23:21;;;;;;;1.75;1.40;;;23.90;99.90;;;27.21;34.58;95460.00;2185803;56;26878;-62
2021/05/29 09:26:07;;;;;;;2.17;1.95;;;22.70;99.90;;;25.76;39.73;95464.00;2405294;56;26831;-62
2021/05/29 09:29:10;;;;;;;3.03;1.87;;;22.00;99.90;;;25.22;38.58;95466.00;2227140;56;27232;-62
2021/05/29 09:32:03;;;;;;;3.83;2.47;;;22.80;99.90;;;25.50;35.42;95468.00;2230573;56;27012;-63
2021/05/29 09:34:52;;;;;;;2.30;1.98;;;20.90;99.90;;;23.60;42.20;95470.00;2187970;56;26260;-62
2021/05/29 09:37:39;;;;;;;2.83;2.00;;;21.10;99.90;;;24.50;47.50;95479.00;2360283;56;26644;-63
2021/05/29 09:40:25;;;;;;;4.28;2.25;;;20.50;99.90;;;24.03;47.15;95478.00;2186111;56;26731;-63
2021/05/29 09:43:11;;;;;;;2.65;1.77;;;20.50;99.90;;;23.94;46.03;95481.00;2178895;56;27166;-63
2021/05/29 09:46:03;;;;;;;3.47;2.20;;;21.10;99.90;;;23.91;41.67;95483.00;2183147;56;26839;-63
2021/05/29 09:48:57;;;;;;;6.80;3.00;;;20.80;99.90;;;23.01;41.48;95475.00;2399596;56;26657;-62
2021/05/29 09:51:43;;;;;;;3.67;2.85;;;19.50;99.90;;;21.00;47.25;95480.00;2175650;56;26958;-62
2021/05/29 09:54:30;;;;;;;8.68;7.80;;;18.20;99.90;;;19.47;56.80;95486.00;2323901;56;26744;-63
2021/05/29 09:57:16;;;;;;;6.03;5.20;;;18.10;99.90;;;19.84;58.99;95476.00;2188705;56;27255;-62
2021/05/29 10:00:06;;;;;;;7.18;4.47;;;18.20;99.90;;;19.97;60.13;95494.00;2171718;56;27315;-62
2021/05/29 10:03:03;;;;;;;5.40;2.80;;;19.00;99.90;;;21.53;51.96;95480.00;2391910;56;26701;-62
2021/05/29 10:05:49;;;;;;;2.30;2.10;;;19.80;99.90;;;21.44;44.19;95486.00;2328207;56;26726;-63
2021/05/29 10:08:35;;;;;;;2.92;2.28;;;22.50;98.60;;;25.15;35.37;95476.00;2402488;56;26187;-62
2021/05/29 10:11:21;;;;;;;1.90;1.70;;;22.00;99.10;;;24.20;37.32;95471.00;2230717;56;27266;-62
2021/05/29 10:14:08;;;;;;;3.28;2.97;;;22.90;97.50;;;24.93;36.24;95470.00;2184977;56;27083;-63
2021/05/29 10:16:54;;;;;;;3.80;2.08;;;21.70;99.90;;;24.30;39.82;95468.00;2183400;56;27442;-63
2021/05/29 10:19:44;;;;;;;3.83;3.30;;;22.30;99.00;;;25.83;37.01;95469.00;2404346;56;26690;-62
2021/05/29 10:22:31;;;;;;;2.65;1.87;;;21.00;99.90;;;22.96;44.65;95466.00;2185028;56;26726;-62
2021/05/29 10:25:20;;;;;;;2.67;1.75;;;17.80;99.90;;;18.45;54.25;95473.00;2184623;56;26980;-62
2021/05/29 10:28:07;;;;;;;3.25;1.70;;;17.60;99.90;;;18.65;64.10;95473.00;2404355;56;26929;-62
2021/05/29 10:30:53;;;;;;;1.73;1.42;;;18.10;99.90;;;19.94;66.88;95468.00;2185460;56;27237;-62
2021/05/29 10:33:43;;;;;;;3.25;1.92;;;18.70;99.90;;;20.78;49.29;95476.00;2185669;56;26777;-63
2021/05/29 10:36:45;;;;;;;3.08;1.62;;;20.20;99.90;;;22.51;47.69;95464.00;2406389;56;26924;-63
2021/05/29 10:39:45;;;;;;;2.75;1.62;;;21.10;99.90;;;23.95;44.50;95464.00;2185872;56;27182;-63
2021/05/29 10:42:32;;;;;;;2.37;1.65;;;20.70;99.90;;;22.88;42.42;95473.00;2222529;56;26864;-62
2021/05/29 10:45:24;;;;;;;3.20;1.80;;;18.00;99.90;;;18.94;51.17;95477.00;2184535;56;26842;-62
2021/05/29 10:48:14;;;;;;;1.98;1.77;;;18.20;99.90;;;19.79;45.45;95473.00;2184486;56;26676;-62
2021/05/29 10:51:06;;;;;;;2.08;1.60;;;18.20;99.50;;;18.66;47.18;95474.00;2186274;56;27208;-62
2021/05/29 10:53:55;;;;;;;7.53;1.67;;;16.70;99.90;;;17.15;59.76;95487.00;2185747;56;26644;-62
2021/05/29 10:56:55;;;;;;;2.45;1.45;;;16.50;99.90;;;17.33;61.60;95488.00;2360731;56;27293;-62
2021/05/29 10:59:41;;;;;;;2.30;1.58;;;17.50;99.90;;;18.84;60.04;95477.00;2310559;56;26911;-63
2021/05/29 11:02:28;;;;;;;3.17;1.60;;;22.60;97.20;;;26.08;34.89;95468.00;2328211;56;26716;-63
2021/05/29 11:05:32;;;;;;;2.97;1.42;;;26.50;93.60;;;29.89;29.17;95466.00;2185645;56;26773;-63
2021/05/29 11:08:51;;;;;;;1.60;1.48;;;26.90;87.10;;;28.59;27.89;95462.00;2404756;56;26761;-63
2021/05/29 11:11:57;;;;;;;1.77;1.50;;;25.20;86.90;;;26.83;29.45;95459.00;2404300;56;25580;-63
2021/05/29 11:14:55;;;;;;;3.75;1.85;;;24.30;89.80;;;25.55;31.89;95469.00;2404744;56;26823;-63
2021/05/29 11:18:05;;;;;;;3.22;1.85;;;20.60;93.40;;;20.77;39.62;95472.00;2303697;56;26736;-62
2021/05/29 11:21:09;;;;;;;4.18;1.70;;;18.10;97.10;;;18.59;49.30;95468.00;2403889;56;27248;-62
2021/05/29 11:23:55;;;;;;;5.78;2.03;;;17.20;99.70;;;18.17;58.50;95478.00;2195577;56;26797;-62
2021/05/29 11:26:42;;;;;;;2.00;1.50;;;17.10;99.90;;;18.09;60.43;95476.00;2182398;56;26863;-65
2021/05/29 11:29:28;;;;;;;2.85;1.40;;;17.20;99.20;;;18.43;55.12;95469.00;2176312;56;26167;-63
2021/05/29 11:32:15;;;;;;;40.60;3.60;;;17.30;99.50;;;18.25;56.38;95474.00;2181436;56;26235;-62
2021/05/29 11:35:01;;;;;;;3.85;1.80;;;17.40;98.60;;;18.43;52.36;95467.00;2352475;56;26682;-62
2021/05/29 11:38:13;;;;;;;1.80;1.40;;;18.40;99.70;;;20.10;52.99;95476.00;2172410;56;26661;-63
2021/05/29 11:41:01;;;;;;;2.35;1.70;;;21.70;94.00;;;25.33;35.87;95448.00;2174463;56;27200;-63
2021/05/29 11:43:49;;;;;;;1.87;1.62;;;23.40;92.80;;;26.23;32.93;95448.00;2174467;56;27618;-63
2021/05/29 11:46:35;;;;;;;1.83;1.50;;;25.70;89.80;;;29.39;28.40;95457.00;2175708;56;27409;-63
2021/05/29 11:49:22;;;;;;;3.72;1.60;;;24.50;90.20;;;26.24;31.80;95444.00;2174243;56;25643;-63
2021/05/29 11:52:09;;;;;;;1.60;1.50;;;23.40;89.70;;;25.37;31.99;95442.00;2313380;56;26664;-63